Time;durP1;ratioP1;P1;durP2;ratioP2;P2;SDS_P1;SDS_P2;PMS_P1;PMS_P2;Temp;Humidity;BMP_temperature;BMP_pressure;BME280_temperature;BME280_humidity;BME280_pressure;Samples;Min_cycle;Max_cycle;Signal;HPM_P1;HPM_P2
2021/12/19 00:02:41;;;;;;;3.40;3.10;;;;;;;5.68;97.10;103879.50;5016443;28;20296;-83
2021/12/19 00:10:26;;;;;;;3.58;3.25;;;;;;;5.67;96.69;103882.94;5023214;28;20041;-83
2021/12/19 00:12:52;;;;;;;3.88;3.58;;;;;;;5.67;96.72;103877.72;5009609;28;20034;-83
2021/12/19 00:15:17;;;;;;;4.93;4.30;;;;;;;5.65;96.73;103871.59;4997368;28;20631;-83
2021/12/19 00:17:43;;;;;;;4.53;3.40;;;;;;;5.63;96.47;103868.09;5011379;28;20046;-83
2021/12/19 00:20:09;;;;;;;5.57;5.07;;;;;;;5.61;96.12;103861.97;5013023;28;20049;-83
2021/12/19 00:22:34;;;;;;;8.20;5.00;;;;;;;5.62;96.20;103857.63;4995915;28;20026;-83
2021/12/19 00:24:59;;;;;;;4.55;4.15;;;;;;;5.61;96.33;103853.28;5017110;28;20033;-83
2021/12/19 00:27:25;;;;;;;8.10;4.15;;;;;;;5.62;96.21;103860.22;5017476;28;20041;-83
2021/12/19 00:29:50;;;;;;;5.82;4.75;;;;;;;5.60;96.27;103854.13;4994334;28;20045;-83
2021/12/19 00:32:16;;;;;;;5.97;4.80;;;;;;;5.60;96.38;103852.38;5013870;28;20030;-83
2021/12/19 00:34:41;;;;;;;5.60;4.82;;;;;;;5.61;96.24;103848.09;5016281;28;20221;-83
2021/12/19 00:37:07;;;;;;;6.70;4.43;;;;;;;5.60;96.42;103848.91;5015776;28;20230;-83
2021/12/19 00:39:32;;;;;;;7.78;5.70;;;;;;;5.60;96.35;103854.13;4999345;28;20030;-83
2021/12/19 00:41:58;;;;;;;5.80;5.10;;;;;;;5.56;96.06;103845.34;5011849;28;20373;-83
2021/12/19 00:44:24;;;;;;;6.65;5.28;;;;;;;5.55;95.94;103848.81;5018648;28;20235;-83
2021/12/19 00:46:52;;;;;;;5.90;4.82;;;;;;;5.53;95.93;103842.66;5015348;28;20109;-83
2021/12/19 00:49:22;;;;;;;7.20;5.78;;;;;;;5.53;95.89;103851.34;5004775;28;20057;-83
2021/12/19 00:51:48;;;;;;;8.52;5.55;;;;;;;5.51;95.81;103841.72;5025889;28;20045;-83
2021/12/19 00:54:13;;;;;;;7.10;5.00;;;;;;;5.50;95.96;103826.97;5010807;28;20164;-83
2021/12/19 00:56:43;;;;;;;7.60;4.75;;;;;;;5.49;96.09;103833.88;5011487;28;20386;-83
2021/12/19 00:59:09;;;;;;;7.10;3.90;;;;;;;5.45;96.02;103825.97;5020688;28;20049;-83
2021/12/19 01:01:35;;;;;;;6.07;3.70;;;;;;;5.43;96.01;103828.53;4994948;28;20220;-83
2021/12/19 01:04:01;;;;;;;5.88;3.95;;;;;;;5.41;96.16;103826.72;5020662;28;20033;-83
2021/12/19 01:06:28;;;;;;;4.97;3.70;;;;;;;5.42;96.38;103823.28;5016701;28;20076;-83
2021/12/19 01:08:53;;;;;;;4.93;3.92;;;;;;;5.41;96.44;103821.53;5014782;28;20475;-83
2021/12/19 01:11:19;;;;;;;7.40;3.75;;;;;;;5.39;96.52;103827.56;4993445;28;20057;-83
2021/12/19 01:13:44;;;;;;;5.95;4.10;;;;;;;5.38;96.44;103811.91;5000346;28;20035;-83
2021/12/19 01:16:10;;;;;;;7.65;4.53;;;;;;;5.38;96.56;103820.59;4985560;28;20069;-83
2021/12/19 01:18:35;;;;;;;6.70;3.78;;;;;;;5.35;96.74;103814.44;4999978;28;20325;-83
2021/12/19 01:21:01;;;;;;;6.20;3.47;;;;;;;5.34;96.94;103804.88;4971648;28;20041;-82
2021/12/19 01:23:26;;;;;;;4.55;3.25;;;;;;;5.32;96.82;103812.63;5001899;28;20042;-82
2021/12/19 01:25:52;;;;;;;5.22;3.10;;;;;;;5.29;96.87;103811.66;5004406;28;20049;-83
2021/12/19 01:28:17;;;;;;;4.55;3.65;;;;;;;5.27;96.86;103813.31;5013724;28;20034;-83
2021/12/19 01:30:43;;;;;;;7.25;4.03;;;;;;;5.25;96.96;103807.19;4981779;28;20281;-83
2021/12/19 01:33:08;;;;;;;7.50;4.57;;;;;;;5.22;96.95;103807.09;4999729;28;20042;-83
2021/12/19 01:35:35;;;;;;;8.60;4.60;;;;;;;5.21;97.05;103806.22;4989328;28;20349;-83
2021/12/19 01:38:01;;;;;;;5.90;4.68;;;;;;;5.21;97.30;103802.75;5007940;28;20046;-83
2021/12/19 01:40:26;;;;;;;8.77;4.60;;;;;;;5.23;97.38;103811.47;5016396;28;20050;-83
2021/12/19 01:42:55;;;;;;;7.65;4.95;;;;;;;5.21;97.38;103798.44;5013863;28;20030;-82
2021/12/19 01:45:33;;;;;;;6.38;4.70;;;;;;;5.19;97.48;103801.00;5008932;28;20038;-83
2021/12/19 01:47:59;;;;;;;7.70;5.30;;;;;;;5.23;97.58;103793.28;5000313;28;20049;-83
2021/12/19 01:50:25;;;;;;;7.75;4.80;;;;;;;5.26;97.70;103801.19;5018187;28;20344;-82
2021/12/19 01:52:51;;;;;;;7.15;4.68;;;;;;;5.26;97.99;103799.47;5014280;28;20032;-82
2021/12/19 01:55:16;;;;;;;9.23;4.53;;;;;;;5.25;98.15;103789.00;4975759;28;20084;-83
2021/12/19 01:57:42;;;;;;;8.00;4.25;;;;;;;5.23;97.97;103783.78;4981487;28;20030;-83
2021/12/19 02:00:08;;;;;;;9.32;4.43;;;;;;;5.24;97.99;103788.16;5000844;28;20038;-82
2021/12/19 02:02:34;;;;;;;7.30;4.63;;;;;;;5.25;98.12;103781.22;5008698;28;20250;-81
2021/12/19 02:05:00;;;;;;;7.57;4.18;;;;;;;5.25;98.04;103791.63;5014166;28;20045;-81
2021/12/19 02:07:27;;;;;;;5.65;4.35;;;;;;;5.24;98.03;103782.03;5019964;28;20036;-81
2021/12/19 02:09:53;;;;;;;9.05;4.68;;;;;;;5.21;98.11;103785.44;5023443;28;20050;-81
2021/12/19 02:12:18;;;;;;;10.73;5.20;;;;;;;5.19;98.01;103782.78;5009159;28;20042;-81
2021/12/19 02:14:43;;;;;;;8.90;5.28;;;;;;;5.18;98.13;103780.16;5016269;28;20086;-81
2021/12/19 02:17:09;;;;;;;16.63;5.72;;;;;;;5.18;98.15;103783.66;5018000;28;20062;-81
2021/12/19 02:19:36;;;;;;;11.13;5.72;;;;;;;5.17;98.16;103781.88;5014642;28;20040;-81
2021/12/19 02:22:01;;;;;;;14.10;6.05;;;;;;;5.18;98.42;103780.16;5000375;28;20038;-82
2021/12/19 02:24:27;;;;;;;14.25;5.85;;;;;;;5.18;98.38;103783.66;4999918;28;20222;-81
2021/12/19 02:26:52;;;;;;;12.30;6.45;;;;;;;5.17;98.30;103779.28;5014379;28;20342;-81
2021/12/19 02:29:18;;;;;;;13.32;6.35;;;;;;;5.18;98.43;103774.94;4999682;28;20048;-81
2021/12/19 02:31:45;;;;;;;13.50;6.20;;;;;;;5.17;98.48;103768.88;4998943;28;20030;-81
2021/12/19 02:34:17;;;;;;;22.70;7.65;;;;;;;5.18;98.61;103759.38;4999854;28;20237;-81
2021/12/19 02:39:46;;;;;;;16.85;7.38;;;;;;;5.21;98.62;103762.06;4998926;28;20042;-81
2021/12/19 02:50:21;;;;;;;13.65;7.10;;;;;;;5.31;98.85;103750.19;5002436;28;20404;-81
2021/12/19 02:52:47;;;;;;;18.65;7.78;;;;;;;5.34;98.98;103748.56;5003811;28;20234;-81
2021/12/19 02:55:14;;;;;;;15.52;7.30;;;;;;;5.38;98.90;103747.84;5002795;28;20085;-81
2021/12/19 02:57:40;;;;;;;18.17;7.75;;;;;;;5.43;98.97;103741.88;5038245;28;20044;-81
2021/12/19 03:00:14;;;;;;;17.67;7.72;;;;;;;5.46;99.04;103734.16;5003521;28;20026;-81
2021/12/19 03:02:40;;;;;;;19.80;7.57;;;;;;;5.47;99.16;103734.19;5005986;28;20065;-81
2021/12/19 03:05:05;;;;;;;14.07;6.95;;;;;;;5.50;99.01;103734.28;5005467;28;20356;-81
2021/12/19 03:07:32;;;;;;;17.48;8.07;;;;;;;5.53;98.91;103725.66;5016784;28;20053;-81
2021/12/19 03:18:08;;;;;;;15.98;6.88;;;;;;;5.62;98.93;103718.13;5003231;28;20048;-81
2021/12/19 03:20:33;;;;;;;13.05;5.65;;;;;;;5.63;98.82;103714.69;5019399;28;20038;-82
2021/12/19 03:22:59;;;;;;;7.32;4.35;;;;;;;5.63;98.96;103711.22;5010944;28;20053;-83
2021/12/19 03:25:25;;;;;;;6.72;3.75;;;;;;;5.65;98.81;103704.31;5000849;28;20101;-83
2021/12/19 03:27:51;;;;;;;4.55;3.05;;;;;;;5.66;99.04;103699.16;5020218;28;20036;-83
2021/12/19 03:30:16;;;;;;;2.97;2.22;;;;;;;5.67;99.13;103697.44;4992524;28;20363;-83
2021/12/19 03:32:42;;;;;;;4.32;1.92;;;;;;;5.68;99.14;103681.00;5018722;28;20038;-83
2021/12/19 03:35:07;;;;;;;2.25;1.63;;;;;;;5.69;99.09;103677.53;5002566;28;20325;-83
2021/12/19 03:37:33;;;;;;;4.40;2.30;;;;;;;5.67;99.12;103669.69;5012597;28;20064;-82
2021/12/19 03:40:12;;;;;;;2.55;2.30;;;;;;;5.68;99.18;103670.59;5019498;28;20108;-82
2021/12/19 03:42:38;;;;;;;;;;;;;;;5.68;99.38;103663.69;5015392;28;20042;-82
2021/12/19 03:45:05;;;;;;;3.17;1.88;;;;;;;5.70;99.28;103666.31;4993712;28;20244;-82
2021/12/19 03:47:31;;;;;;;3.88;2.33;;;;;;;5.71;99.34;103662.84;5001833;28;20069;-83
2021/12/19 03:49:56;;;;;;;4.70;2.75;;;;;;;5.70;99.67;103662.00;5001996;28;20397;-83
2021/12/19 03:52:21;;;;;;;3.75;2.22;;;;;;;5.71;99.70;103663.75;5011016;28;20063;-83
2021/12/19 03:54:47;;;;;;;3.45;2.25;;;;;;;5.73;99.67;103661.16;5019599;28;20241;-83
2021/12/19 03:57:12;;;;;;;5.18;2.50;;;;;;;5.74;99.67;103665.53;5020850;28;20033;-83
2021/12/19 03:59:41;;;;;;;4.07;2.30;;;;;;;5.75;99.65;103663.00;5013695;28;20256;-82
2021/12/19 04:02:06;;;;;;;5.57;2.55;;;;;;;5.79;99.83;103666.53;5013345;28;20042;-81
2021/12/19 04:04:36;;;;;;;3.28;2.20;;;;;;;5.79;99.91;103661.34;4999147;28;20113;-81
2021/12/19 04:07:01;;;;;;;4.25;2.30;;;;;;;5.80;99.79;103655.28;5010740;28;20046;-81
2021/12/19 04:09:27;;;;;;;4.93;2.60;;;;;;;5.83;100.00;103657.97;5014356;28;20081;-81
2021/12/19 04:11:55;;;;;;;4.03;2.47;;;;;;;5.82;99.90;103650.13;4986779;28;20353;-82
2021/12/19 04:14:20;;;;;;;3.63;2.23;;;;;;;5.83;99.91;103647.56;5004109;28;20034;-81
2021/12/19 04:16:46;;;;;;;4.18;2.13;;;;;;;5.84;99.96;103632.81;5003312;28;20053;-81
2021/12/19 04:19:11;;;;;;;5.00;2.33;;;;;;;5.85;100.00;103632.00;5001272;28;20226;-81
2021/12/19 04:21:37;;;;;;;3.22;2.13;;;;;;;5.87;100.00;103628.56;5001529;28;20048;-82
2021/12/19 04:24:02;;;;;;;2.72;2.13;;;;;;;5.88;100.00;103627.75;5020139;28;20060;-81
2021/12/19 04:26:28;;;;;;;3.15;2.30;;;;;;;5.90;100.00;103627.78;4986453;28;20125;-81
2021/12/19 04:28:53;;;;;;;4.05;2.42;;;;;;;5.91;100.00;103620.03;5002522;28;20042;-81
2021/12/19 04:31:19;;;;;;;4.15;2.47;;;;;;;5.91;100.00;103620.03;5019789;28;20105;-82
2021/12/19 04:33:45;;;;;;;5.63;2.40;;;;;;;5.90;100.00;103623.47;5004428;28;20034;-81
2021/12/19 04:36:16;;;;;;;4.47;2.80;;;;;;;5.93;100.00;103627.84;5020751;28;20044;-81
2021/12/19 04:41:50;;;;;;;6.40;2.85;;;;;;;5.94;100.00;103624.41;5005174;28;20061;-81
2021/12/19 04:52:52;;;;;;;7.97;2.78;;;;;;;5.99;100.00;103608.94;5004545;28;20044;-81
2021/12/19 04:55:45;;;;;;;5.15;2.40;;;;;;;5.99;100.00;103602.03;5007617;28;20361;-81
2021/12/19 04:58:24;;;;;;;5.60;3.00;;;;;;;5.99;100.00;103596.81;4997854;28;20053;-81
2021/12/19 05:04:05;;;;;;;3.67;2.25;;;;;;;6.02;100.00;103593.41;5015150;28;20387;-81
2021/12/19 05:14:37;;;;;;;4.82;2.63;;;;;;;6.03;100.00;103605.56;5017816;28;20049;-81
2021/12/19 05:17:07;;;;;;;6.97;2.53;;;;;;;6.02;100.00;103604.69;5015474;28;20042;-81
2021/12/19 05:19:51;;;;;;;4.05;2.75;;;;;;;6.02;100.00;103603.78;5018452;28;20408;-81
2021/12/19 05:22:18;;;;;;;3.20;2.38;;;;;;;6.03;100.00;103595.16;5019554;28;20041;-82
2021/12/19 05:24:48;;;;;;;2.85;2.28;;;;;;;6.04;100.00;103608.22;4984816;28;20375;-81
2021/12/19 05:27:14;;;;;;;3.25;2.25;;;;;;;6.04;100.00;103608.22;5026251;28;20056;-81
2021/12/19 05:29:39;;;;;;;3.53;2.38;;;;;;;6.06;100.00;103610.84;5011731;28;20400;-82
2021/12/19 05:32:05;;;;;;;4.03;2.38;;;;;;;6.06;100.00;103609.13;5014799;28;20026;-82
2021/12/19 05:34:31;;;;;;;5.18;2.70;;;;;;;6.08;100.00;103611.75;5015395;28;20360;-82
2021/12/19 05:45:12;;;;;;;2.42;2.20;;;;;;;6.12;100.00;103613.56;5002943;28;20084;-81
2021/12/19 05:47:38;;;;;;;3.15;2.28;;;;;;;6.12;100.00;103609.25;5015024;28;20045;-81
2021/12/19 05:50:04;;;;;;;3.05;2.00;;;;;;;6.13;100.00;103603.22;4990033;28;20122;-82
2021/12/19 05:52:29;;;;;;;3.10;2.53;;;;;;;6.14;100.00;103604.06;4998662;28;20037;-81
2021/12/19 05:54:55;;;;;;;3.58;2.72;;;;;;;6.14;100.00;103601.47;5016186;28;20045;-81
2021/12/19 05:57:20;;;;;;;4.15;2.50;;;;;;;6.14;100.00;103598.88;5008364;28;20101;-81
2021/12/19 05:59:46;;;;;;;2.58;2.35;;;;;;;6.17;100.00;103603.25;4997743;28;20056;-81
2021/12/19 06:02:11;;;;;;;4.10;2.33;;;;;;;6.17;100.00;103598.06;4991495;28;20037;-82
2021/12/19 06:04:36;;;;;;;4.63;2.60;;;;;;;6.18;100.00;103592.88;5014766;28;20065;-82
2021/12/19 06:07:02;;;;;;;4.05;2.90;;;;;;;6.19;100.00;103594.66;5021981;28;20041;-82
2021/12/19 06:09:27;;;;;;;3.38;2.22;;;;;;;6.19;100.00;103581.66;5008627;28;20214;-82
2021/12/19 06:11:53;;;;;;;2.03;1.83;;;;;;;6.20;100.00;103587.72;5021670;28;20114;-82
2021/12/19 06:14:18;;;;;;;2.80;2.25;;;;;;;6.21;100.00;103585.16;5020412;28;20082;-82
2021/12/19 06:16:44;;;;;;;2.80;1.90;;;;;;;6.22;100.00;103579.13;5020161;28;20039;-82
2021/12/19 06:19:09;;;;;;;2.40;1.77;;;;;;;6.21;100.00;103582.56;4997209;28;20349;-81
2021/12/19 06:21:34;;;;;;;1.55;1.45;;;;;;;6.20;100.00;103575.56;5001600;28;20042;-82
2021/12/19 06:24:00;;;;;;;2.15;1.50;;;;;;;6.21;100.00;103566.94;5016575;28;20030;-81
2021/12/19 06:26:25;;;;;;;2.60;1.60;;;;;;;6.21;100.00;103568.66;4983807;28;20253;-82
2021/12/19 06:28:51;;;;;;;1.55;1.40;;;;;;;6.21;100.00;103569.53;5002466;28;20037;-82
2021/12/19 06:31:17;;;;;;;2.55;1.67;;;;;;;6.21;100.00;103569.53;5021255;28;20036;-82
2021/12/19 06:33:43;;;;;;;2.60;1.33;;;;;;;6.20;100.00;103566.91;5018350;28;20136;-81
2021/12/19 06:36:09;;;;;;;1.63;1.20;;;;;;;6.21;100.00;103571.28;5000691;28;20029;-81
2021/12/19 06:38:35;;;;;;;1.38;1.27;;;;;;;6.21;100.00;103563.47;5015624;28;20084;-82
2021/12/19 06:41:00;;;;;;;2.20;1.45;;;;;;;6.23;100.00;103561.78;5035792;28;20049;-82
2021/12/19 06:43:26;;;;;;;2.00;1.80;;;;;;;6.24;100.00;103559.22;5019829;28;20041;-82
2021/12/19 06:45:53;;;;;;;2.25;1.40;;;;;;;6.25;100.00;103563.53;5013928;28;20065;-82
2021/12/19 06:48:22;;;;;;;2.17;1.17;;;;;;;6.25;100.00;103555.75;5007192;28;20042;-82
2021/12/19 06:50:48;;;;;;;1.83;1.50;;;;;;;6.28;100.00;103553.22;5006629;28;20042;-82
2021/12/19 06:53:13;;;;;;;3.25;1.55;;;;;;;6.27;100.00;103559.25;5017904;28;20355;-82
2021/12/19 06:55:39;;;;;;;1.90;1.30;;;;;;;6.28;100.00;103544.53;5002534;28;20034;-82
2021/12/19 06:58:04;;;;;;;1.83;1.30;;;;;;;6.28;100.00;103545.41;4998724;28;20030;-82
2021/12/19 07:00:30;;;;;;;2.33;1.27;;;;;;;6.29;100.00;103535.84;5012241;28;20144;-82
2021/12/19 07:02:55;;;;;;;1.83;1.58;;;;;;;6.29;100.00;103541.97;5018837;28;20062;-81
2021/12/19 07:05:21;;;;;;;1.65;1.20;;;;;;;6.31;100.00;103537.66;5019788;28;20330;-82
2021/12/19 07:07:46;;;;;;;1.80;1.45;;;;;;;6.33;100.00;103530.75;5020452;28;20050;-82
2021/12/19 07:10:12;;;;;;;3.17;1.70;;;;;;;6.36;100.00;103536.88;5007678;28;20225;-82
2021/12/19 07:12:37;;;;;;;2.42;1.58;;;;;;;6.36;100.00;103534.25;5015566;28;20204;-82
2021/12/19 07:15:03;;;;;;;1.63;1.52;;;;;;;6.34;100.00;103540.31;5016797;28;20398;-82
2021/12/19 07:17:29;;;;;;;2.35;1.65;;;;;;;6.35;100.00;103538.59;5035496;28;20304;-82
2021/12/19 07:19:54;;;;;;;1.58;1.48;;;;;;;6.35;100.00;103536.00;4986889;28;20073;-81
2021/12/19 07:22:20;;;;;;;6.15;2.38;;;;;;;6.34;100.00;103539.44;5008516;28;20367;-82
2021/12/19 07:24:45;;;;;;;1.92;1.75;;;;;;;6.34;100.00;103535.09;5018207;28;20065;-81
2021/12/19 07:27:12;;;;;;;1.73;1.40;;;;;;;6.36;100.00;103534.25;4985940;28;20037;-82
2021/12/19 07:29:37;;;;;;;1.45;1.35;;;;;;;6.36;100.00;103527.31;5002560;28;20236;-82
2021/12/19 07:32:03;;;;;;;1.40;1.05;;;;;;;6.35;100.00;103533.41;5017573;28;20149;-82
2021/12/19 07:34:32;;;;;;;2.05;0.98;;;;;;;6.34;100.00;103539.44;5015662;28;20034;-82
2021/12/19 07:36:58;;;;;;;1.75;1.05;;;;;;;6.32;100.00;103533.31;5000279;28;20258;-82
2021/12/19 07:39:39;;;;;;;1.95;0.60;;;;;;;6.31;100.00;103542.88;5007653;28;20061;-81
2021/12/19 07:42:06;;;;;;;1.05;0.73;;;;;;;6.29;100.00;103538.47;5002337;28;20050;-81
2021/12/19 07:44:32;;;;;;;0.73;0.60;;;;;;;6.28;100.00;103535.00;5021416;28;20034;-81
2021/12/19 07:46:58;;;;;;;3.65;0.80;;;;;;;6.25;100.00;103526.25;5019241;28;20048;-81
2021/12/19 07:49:23;;;;;;;2.17;0.57;;;;;;;6.25;100.00;103526.25;5004139;28;20048;-82
2021/12/19 07:51:48;;;;;;;2.65;0.82;;;;;;;6.26;100.00;103535.81;5016007;28;20026;-82
2021/12/19 07:54:14;;;;;;;1.00;0.80;;;;;;;6.26;100.00;103530.63;5013672;28;20030;-82
2021/12/19 07:56:39;;;;;;;1.17;0.68;;;;;;;6.26;100.00;103533.22;5016810;28;20030;-82
2021/12/19 07:59:05;;;;;;;1.40;0.90;;;;;;;6.27;100.00;103532.34;5018495;28;20132;-82
2021/12/19 08:01:31;;;;;;;3.40;1.00;;;;;;;6.25;100.00;103527.09;4999695;28;20218;-82
2021/12/19 08:03:56;;;;;;;2.72;1.00;;;;;;;6.24;100.00;103530.56;5014517;28;20046;-82
2021/12/19 08:06:22;;;;;;;1.27;0.80;;;;;;;6.24;100.00;103530.56;5000682;28;20107;-82
2021/12/19 08:08:52;;;;;;;1.38;0.90;;;;;;;6.25;100.00;103526.25;5018761;28;20068;-82
2021/12/19 08:14:01;;;;;;;2.33;0.90;;;;;;;6.26;100.00;103518.47;5004215;28;20545;-82
2021/12/19 08:16:27;;;;;;;1.08;0.70;;;;;;;6.29;100.00;103533.25;4986915;28;20041;-82
2021/12/19 08:18:52;;;;;;;3.63;0.93;;;;;;;6.30;100.00;103522.88;4998361;28;20141;-81
2021/12/19 08:21:19;;;;;;;1.90;1.25;;;;;;;6.32;100.00;103520.31;5013124;28;20037;-82
2021/12/19 08:23:44;;;;;;;1.52;1.02;;;;;;;6.32;100.00;103518.59;5017018;28;20048;-82
2021/12/19 08:26:10;;;;;;;2.28;1.33;;;;;;;6.34;100.00;103518.63;5020117;28;20053;-82
2021/12/19 08:28:35;;;;;;;2.58;1.20;;;;;;;6.32;100.00;103508.16;5018723;28;20072;-82
2021/12/19 08:31:01;;;;;;;1.75;1.63;;;;;;;6.34;100.00;103516.88;5017651;28;20044;-81
2021/12/19 08:33:26;;;;;;;2.38;1.83;;;;;;;6.35;100.00;103515.19;5001972;28;20080;-82
2021/12/19 08:35:51;;;;;;;3.63;1.83;;;;;;;6.37;100.00;103515.19;5016856;28;20045;-82
2021/12/19 08:38:17;;;;;;;2.42;1.83;;;;;;;6.34;100.00;103503.88;5015243;28;20050;-82
2021/12/19 08:40:44;;;;;;;2.20;1.65;;;;;;;6.36;100.00;103500.44;4997930;28;20046;-82
2021/12/19 08:43:09;;;;;;;1.70;1.60;;;;;;;6.34;100.00;103503.88;5015728;28;20038;-82
2021/12/19 08:45:35;;;;;;;3.08;1.58;;;;;;;6.36;100.00;103508.25;5024793;28;20048;-82
2021/12/19 08:48:00;;;;;;;2.13;1.75;;;;;;;6.37;100.00;103512.56;5024068;28;20034;-82
2021/12/19 08:50:25;;;;;;;1.58;1.45;;;;;;;6.34;100.00;103509.06;5017041;28;20038;-82
2021/12/19 08:52:52;;;;;;;2.00;1.60;;;;;;;6.35;100.00;103509.97;5019695;28;20041;-81
2021/12/19 08:55:18;;;;;;;3.10;2.15;;;;;;;6.34;100.00;103510.81;5024344;28;20029;-81
2021/12/19 08:57:43;;;;;;;1.90;1.20;;;;;;;6.32;100.00;103508.16;5023059;28;20165;-82
2021/12/19 09:00:13;;;;;;;1.30;1.15;;;;;;;6.33;100.00;103506.44;5011278;28;20056;-81
2021/12/19 09:02:41;;;;;;;3.28;1.63;;;;;;;6.34;100.00;103503.00;5012731;28;20136;-80
2021/12/19 09:05:07;;;;;;;1.88;1.42;;;;;;;6.37;100.00;103496.97;5013814;28;20065;-80
2021/12/19 09:07:32;;;;;;;1.65;1.52;;;;;;;6.39;100.00;103498.75;4995321;28;20113;-80
2021/12/19 09:09:57;;;;;;;2.50;1.27;;;;;;;6.41;100.00;103498.81;5012818;28;20042;-81
2021/12/19 09:12:23;;;;;;;2.28;1.20;;;;;;;6.42;100.00;103497.94;5014481;28;20033;-81
2021/12/19 09:14:48;;;;;;;2.30;1.15;;;;;;;6.44;100.00;103493.63;4981506;28;20665;-81
2021/12/19 09:17:14;;;;;;;1.20;1.10;;;;;;;6.44;100.00;103494.53;5012764;28;20076;-81
2021/12/19 09:19:39;;;;;;;2.15;1.30;;;;;;;6.46;100.00;103499.78;4995758;28;20236;-81
2021/12/19 09:22:05;;;;;;;2.65;1.10;;;;;;;6.47;100.00;103501.50;5015467;28;20265;-81
2021/12/19 09:24:30;;;;;;;1.00;0.90;;;;;;;6.47;100.00;103499.78;4999123;28;20054;-81
2021/12/19 09:26:55;;;;;;;1.33;0.80;;;;;;;6.49;100.00;103505.00;4976521;28;20040;-81
2021/12/19 09:29:21;;;;;;;1.63;0.95;;;;;;;6.49;100.00;103505.91;5016835;28;20036;-81
2021/12/19 09:31:46;;;;;;;2.80;0.82;;;;;;;6.49;100.00;103497.19;4997519;28;20045;-81
2021/12/19 09:34:12;;;;;;;0.90;0.90;;;;;;;6.48;100.00;103492.88;4997924;28;20044;-81
2021/12/19 09:36:37;;;;;;;1.77;0.93;;;;;;;6.47;100.00;103499.78;5029602;28;20083;-81
2021/12/19 09:39:03;;;;;;;1.95;1.10;;;;;;;6.48;100.00;103503.28;5011494;28;20077;-81
2021/12/19 09:41:30;;;;;;;2.78;0.80;;;;;;;6.47;100.00;103504.97;5012969;28;20049;-81
2021/12/19 09:43:58;;;;;;;1.23;0.85;;;;;;;6.46;100.00;103500.63;5018767;28;20251;-81
2021/12/19 09:46:28;;;;;;;0.98;0.80;;;;;;;6.48;100.00;103492.88;5018846;28;20037;-81
2021/12/19 09:48:53;;;;;;;1.40;0.88;;;;;;;6.48;100.00;103483.31;5001820;28;20376;-81
2021/12/19 09:51:19;;;;;;;0.98;0.70;;;;;;;6.51;100.00;103485.09;4996860;28;20105;-81
2021/12/19 09:53:44;;;;;;;3.33;1.02;;;;;;;6.51;100.00;103483.38;4999215;28;20349;-81
2021/12/19 09:56:11;;;;;;;2.35;0.80;;;;;;;6.50;100.00;103480.75;5016571;28;20164;-81
2021/12/19 09:58:36;;;;;;;1.95;0.50;;;;;;;6.50;99.97;103481.63;4997917;28;20157;-81
2021/12/19 10:01:05;;;;;;;0.40;0.40;;;;;;;6.49;100.00;103490.28;5013934;28;20330;-81
2021/12/19 10:03:30;;;;;;;0.50;0.50;;;;;;;6.51;99.97;103487.69;4979094;28;20325;-81
2021/12/19 10:06:19;;;;;;;1.70;0.90;;;;;;;6.51;99.99;103486.00;5026360;28;20034;-81
2021/12/19 10:08:53;;;;;;;2.83;0.57;;;;;;;6.53;100.00;103491.19;4988479;28;20034;-81
2021/12/19 10:11:31;;;;;;;1.40;0.98;;;;;;;6.52;100.00;103487.72;5010085;28;20037;-81
2021/12/19 10:13:56;;;;;;;1.60;1.00;;;;;;;6.52;100.00;103484.25;5009867;28;20042;-81
2021/12/19 10:16:27;;;;;;;1.15;1.00;;;;;;;6.52;100.00;103489.47;4998682;28;20034;-81
2021/12/19 10:18:54;;;;;;;0.77;0.77;;;;;;;6.52;100.00;103485.13;4991841;28;20382;-81
2021/12/19 10:21:20;;;;;;;4.00;1.00;;;;;;;6.52;100.00;103474.72;5008555;28;20033;-81
2021/12/19 10:23:45;;;;;;;1.52;0.88;;;;;;;6.53;100.00;103475.56;4995985;28;20051;-81
2021/12/19 10:26:11;;;;;;;2.05;0.70;;;;;;;6.53;100.00;103475.56;5016067;28;20344;-81
2021/12/19 10:28:53;;;;;;;3.63;1.00;;;;;;;6.53;99.98;103473.88;4995350;28;20103;-81
2021/12/19 10:31:19;;;;;;;1.17;1.00;;;;;;;6.54;100.00;103465.19;4996187;28;20296;-81
2021/12/19 10:33:45;;;;;;;2.45;0.90;;;;;;;6.56;99.90;103470.44;4982207;28;20036;-80
2021/12/19 10:36:10;;;;;;;2.35;1.17;;;;;;;6.56;99.93;103454.81;4997407;28;20609;-81
2021/12/19 10:38:46;;;;;;;1.88;0.90;;;;;;;6.58;100.00;103460.06;5010485;28;20360;-81
2021/12/19 10:41:13;;;;;;;3.28;0.90;;;;;;;6.58;100.00;103457.44;5010915;28;20038;-81
2021/12/19 10:43:47;;;;;;;0.93;0.90;;;;;;;6.58;99.77;103465.25;5015055;28;20037;-81
2021/12/19 10:46:12;;;;;;;2.78;1.23;;;;;;;6.58;99.93;103447.91;5016263;28;20041;-81
2021/12/19 10:48:39;;;;;;;2.28;0.93;;;;;;;6.59;99.86;103447.06;5014530;28;20042;-81
2021/12/19 10:51:16;;;;;;;1.30;0.93;;;;;;;6.61;99.92;103439.28;4996046;28;20038;-81
2021/12/19 10:53:55;;;;;;;2.75;0.85;;;;;;;6.61;99.78;103437.56;5017870;28;20029;-81
2021/12/19 10:56:29;;;;;;;;;;;;;;;6.62;99.88;103434.09;5013238;28;20379;-81
2021/12/19 10:58:57;;;;;;;2.25;0.90;;;;;;;6.62;99.95;103426.28;5009118;28;20133;-81
2021/12/19 11:01:29;;;;;;;1.73;0.77;;;;;;;6.62;99.87;103428.91;4997085;28;20261;-81
2021/12/19 11:04:14;;;;;;;2.50;0.90;;;;;;;6.63;99.81;103424.56;5016241;28;20041;-81
2021/12/19 11:06:45;;;;;;;1.10;0.95;;;;;;;6.63;99.58;103409.81;5000580;28;20368;-81
2021/12/19 11:09:15;;;;;;;6.68;1.60;;;;;;;6.62;99.58;103408.06;5017040;28;20065;-81
2021/12/19 11:11:43;;;;;;;2.33;1.35;;;;;;;6.63;99.61;103415.00;5009526;28;20409;-81
2021/12/19 11:14:10;;;;;;;4.75;1.83;;;;;;;6.62;99.85;103412.38;5016557;28;20341;-81
2021/12/19 11:16:36;;;;;;;3.67;1.85;;;;;;;6.63;99.64;103401.13;5003165;28;20034;-81
2021/12/19 11:19:01;;;;;;;6.88;2.10;;;;;;;6.63;99.58;103404.59;4998651;28;20349;-81
2021/12/19 11:21:32;;;;;;;6.25;2.20;;;;;;;6.64;99.76;103398.56;4999956;28;20037;-81
2021/12/19 11:23:58;;;;;;;4.10;2.30;;;;;;;6.66;99.78;103390.78;5001144;28;20049;-81
2021/12/19 11:26:23;;;;;;;9.45;2.60;;;;;;;6.67;99.73;103382.09;4998449;28;20335;-81
2021/12/19 11:28:48;;;;;;;9.60;3.10;;;;;;;6.68;99.70;103384.72;5001515;28;20036;-81
2021/12/19 11:31:14;;;;;;;3.72;2.33;;;;;;;6.68;99.64;103382.13;5017088;28;20103;-81
2021/12/19 11:34:21;;;;;;;6.20;2.92;;;;;;;6.68;99.48;103379.50;4980873;28;20021;-81
2021/12/19 11:37:12;;;;;;;5.75;2.95;;;;;;;6.69;99.32;103375.16;5002293;28;20034;-81
2021/12/19 11:39:39;;;;;;;10.68;2.90;;;;;;;6.68;99.14;103369.09;4993557;28;20108;-81
2021/12/19 11:42:08;;;;;;;8.60;3.50;;;;;;;6.67;99.01;103369.94;5019730;28;20057;-81
2021/12/19 11:44:46;;;;;;;11.20;3.42;;;;;;;6.69;98.81;103368.25;5015147;28;20132;-81
2021/12/19 11:47:15;;;;;;;8.70;3.67;;;;;;;6.69;98.78;103362.16;5019418;28;20285;-81
2021/12/19 11:49:41;;;;;;;10.52;3.90;;;;;;;6.70;98.92;103369.13;5017593;28;20057;-77
2021/12/19 11:52:30;;;;;;;12.95;3.40;;;;;;;6.69;98.50;103355.22;5012289;28;20583;-80
2021/12/19 11:55:14;;;;;;;9.48;3.33;;;;;;;6.69;98.47;103352.63;4992089;28;20072;-80
2021/12/19 11:57:44;;;;;;;5.47;2.63;;;;;;;6.68;98.12;103360.41;5020224;28;20033;-80
2021/12/19 12:00:26;;;;;;;6.95;2.45;;;;;;;6.66;98.06;103352.56;5004953;28;20034;-80
2021/12/19 12:03:11;;;;;;;14.70;3.55;;;;;;;6.66;97.56;103346.50;5003693;28;20037;-80
2021/12/19 12:05:51;;;;;;;9.70;2.85;;;;;;;6.67;97.47;103354.31;5016582;28;20275;-80
2021/12/19 12:08:25;;;;;;;;;;;;;;;6.66;97.33;103352.56;5004153;28;20264;-81
2021/12/19 12:10:59;;;;;;;12.93;3.47;;;;;;;6.67;97.24;103345.63;5004365;28;19917;-81
2021/12/19 12:13:36;;;;;;;4.53;2.85;;;;;;;6.68;97.25;103342.19;5021631;28;20588;-81
2021/12/19 12:16:24;;;;;;;11.50;4.15;;;;;;;6.68;97.16;103335.25;5020347;28;20030;-81
2021/12/19 12:18:57;;;;;;;5.05;2.72;;;;;;;6.69;97.39;103329.19;5015275;28;20412;-80
2021/12/19 12:21:40;;;;;;;8.90;2.97;;;;;;;6.69;97.17;103328.28;5002434;28;20041;-80
2021/12/19 12:24:15;;;;;;;8.68;3.10;;;;;;;6.67;97.26;103323.06;5000130;28;20333;-80
2021/12/19 12:26:49;;;;;;;14.75;3.88;;;;;;;6.68;97.16;103323.97;5018853;28;20034;-81
2021/12/19 12:29:15;;;;;;;13.50;3.90;;;;;;;6.69;97.40;103328.28;5009563;28;20038;-81
2021/12/19 12:31:41;;;;;;;8.15;2.95;;;;;;;6.70;97.41;103327.47;5005222;28;20376;-81